createdAt,value
2018-10-12T00:00:57.131Z,12.20
2018-10-12T00:03:32.655Z,12.20
2018-10-12T00:06:08.291Z,12.10
2018-10-12T00:08:43.655Z,12.10
2018-10-12T00:11:19.072Z,12.30
2018-10-12T00:13:54.424Z,12.20
2018-10-12T00:16:29.704Z,12.20
2018-10-12T00:19:05.073Z,12.00
2018-10-12T00:21:40.764Z,11.90
2018-10-12T00:24:16.315Z,11.90
2018-10-12T00:26:51.864Z,12.00
2018-10-12T00:29:27.551Z,11.90
2018-10-12T00:32:02.951Z,11.80
2018-10-12T00:34:38.491Z,11.80
2018-10-12T00:37:14.004Z,12.00
2018-10-12T00:39:49.604Z,11.80
2018-10-12T00:42:25.121Z,11.80
2018-10-12T00:45:00.664Z,11.80
2018-10-12T00:47:36.301Z,11.70
2018-10-12T00:50:11.662Z,11.70
2018-10-12T00:52:47.124Z,11.70
2018-10-12T00:55:23.355Z,11.80
2018-10-12T00:57:58.945Z,11.80
2018-10-12T01:00:34.431Z,11.80
2018-10-12T01:03:10.114Z,11.80
2018-10-12T01:05:45.424Z,11.80
2018-10-12T01:08:21.124Z,11.90
2018-10-12T01:10:56.765Z,11.80
2018-10-12T01:13:32.166Z,11.60
2018-10-12T01:16:07.605Z,11.60
2018-10-12T01:18:43.031Z,11.60
2018-10-12T01:21:18.623Z,11.60
2018-10-12T01:23:54.370Z,11.60
2018-10-12T01:26:29.844Z,11.60
2018-10-12T01:29:05.264Z,11.70
2018-10-12T01:31:40.614Z,11.60
2018-10-12T01:34:15.841Z,11.60
2018-10-12T01:36:51.172Z,11.60
2018-10-12T01:39:26.617Z,11.60
2018-10-12T01:42:01.966Z,11.60
2018-10-12T01:44:37.622Z,11.60
2018-10-12T01:47:13.274Z,11.60
2018-10-12T01:49:48.813Z,11.60
2018-10-12T01:52:24.154Z,11.50
2018-10-12T01:54:59.584Z,11.50
2018-10-12T01:57:34.954Z,11.60
2018-10-12T02:00:10.192Z,11.80
2018-10-12T02:02:45.664Z,12.00
2018-10-12T02:05:21.080Z,12.10
2018-10-12T02:07:56.628Z,12.20
2018-10-12T02:10:31.944Z,12.10
2018-10-12T02:13:07.384Z,12.10
2018-10-12T02:15:42.845Z,12.20
2018-10-12T02:18:18.184Z,12.10
2018-10-12T02:20:53.505Z,12.10
2018-10-12T02:23:28.805Z,12.10
2018-10-12T02:26:04.195Z,12.20
2018-10-12T02:28:39.754Z,12.30
2018-10-12T02:31:15.314Z,12.40
2018-10-12T02:33:50.884Z,12.50
2018-10-12T02:36:26.252Z,12.50
2018-10-12T02:39:01.827Z,12.60
2018-10-12T02:41:37.295Z,12.60
2018-10-12T02:44:13.098Z,12.60
2018-10-12T02:46:48.576Z,12.60
2018-10-12T02:49:23.991Z,12.60
2018-10-12T02:51:59.332Z,12.70
2018-10-12T02:54:34.795Z,12.70
2018-10-12T02:57:10.361Z,12.70
2018-10-12T02:59:45.866Z,12.70
2018-10-12T03:02:21.341Z,12.70
2018-10-12T03:04:56.790Z,12.60
2018-10-12T03:07:32.211Z,12.60
2018-10-12T03:10:07.474Z,12.60
2018-10-12T03:12:42.791Z,12.70
2018-10-12T03:15:18.002Z,12.70
2018-10-12T03:17:53.581Z,12.50
2018-10-12T03:20:28.892Z,12.50
2018-10-12T03:23:04.299Z,12.60
2018-10-12T03:25:39.880Z,12.50
2018-10-12T03:28:22.614Z,12.40
2018-10-12T03:30:58.735Z,12.50
2018-10-12T03:33:34.633Z,12.40
2018-10-12T03:36:10.136Z,12.40
2018-10-12T03:38:45.669Z,12.50
2018-10-12T03:41:21.414Z,12.50
2018-10-12T03:43:56.956Z,12.40
2018-10-12T03:46:32.685Z,12.40
2018-10-12T03:49:08.112Z,12.40
2018-10-12T03:51:43.498Z,12.40
2018-10-12T03:54:18.748Z,12.30
2018-10-12T03:56:54.299Z,12.30
2018-10-12T03:59:29.821Z,12.10
2018-10-12T04:02:05.563Z,12.10
2018-10-12T04:04:40.893Z,12.00
2018-10-12T04:07:16.554Z,12.00
2018-10-12T04:09:51.804Z,12.00
2018-10-12T04:12:27.128Z,11.90
2018-10-12T04:15:02.592Z,12.00
2018-10-12T04:17:37.795Z,11.90
2018-10-12T04:20:13.181Z,11.90
2018-10-12T04:22:48.606Z,11.90
2018-10-12T04:25:24.043Z,11.90
2018-10-12T04:27:59.471Z,11.90
2018-10-12T04:30:35.157Z,11.90
2018-10-12T04:33:10.486Z,11.90
2018-10-12T04:35:46.016Z,11.90
2018-10-12T04:38:21.598Z,11.90
2018-10-12T04:41:36.426Z,11.80
2018-10-12T04:44:12.117Z,11.90
2018-10-12T04:46:47.758Z,11.80
2018-10-12T04:49:23.302Z,11.80
2018-10-12T04:51:59.749Z,11.80
2018-10-12T04:54:35.237Z,12.00
2018-10-12T04:57:10.746Z,12.00
2018-10-12T04:59:46.176Z,11.90
2018-10-12T05:02:21.587Z,11.90
2018-10-12T05:04:56.942Z,11.90
2018-10-12T05:07:32.523Z,11.90
2018-10-12T05:10:08.155Z,11.90
2018-10-12T05:12:43.414Z,11.90
2018-10-12T05:15:18.748Z,12.00
2018-10-12T05:17:54.237Z,11.90
2018-10-12T05:20:29.775Z,12.00
2018-10-12T05:23:05.299Z,12.10
2018-10-12T05:25:40.584Z,12.00
2018-10-12T05:28:16.075Z,11.90
2018-10-12T05:30:51.464Z,11.80
2018-10-12T05:33:26.805Z,11.90
2018-10-12T05:36:02.456Z,12.00
2018-10-12T05:38:37.976Z,11.90
2018-10-12T05:41:13.358Z,11.90
2018-10-12T05:43:48.913Z,11.90
2018-10-12T05:46:24.207Z,11.90
2018-10-12T05:49:10.599Z,11.90
2018-10-12T05:51:46.133Z,11.90
2018-10-12T05:54:21.635Z,11.90
2018-10-12T05:56:57.144Z,11.80
2018-10-12T05:59:32.774Z,11.70
2018-10-12T06:02:08.172Z,11.70
2018-10-12T06:04:43.483Z,11.80
2018-10-12T06:07:18.782Z,11.90
2018-10-12T06:09:54.307Z,11.80
2018-10-12T06:12:29.592Z,11.90
2018-10-12T06:15:05.246Z,12.00
2018-10-12T06:17:40.785Z,11.90
2018-10-12T06:20:16.332Z,11.90
2018-10-12T06:22:51.692Z,11.90
2018-10-12T06:25:27.277Z,12.00
2018-10-12T06:28:02.885Z,12.00
2018-10-12T06:30:38.304Z,12.00
2018-10-12T06:33:13.781Z,11.90
2018-10-12T06:35:49.254Z,12.00
2018-10-12T06:38:24.812Z,12.00
2018-10-12T06:41:00.418Z,12.00
2018-10-12T06:43:35.539Z,12.00
2018-10-12T06:46:10.847Z,12.00
2018-10-12T06:48:46.305Z,12.00
2018-10-12T06:51:21.755Z,12.10
2018-10-12T06:53:57.427Z,12.10
2018-10-12T06:56:33.217Z,12.10
2018-10-12T06:59:09.481Z,12.20
2018-10-12T07:01:44.703Z,12.20
2018-10-12T07:04:20.886Z,12.20
2018-10-12T07:06:56.362Z,12.40
2018-10-12T07:09:31.771Z,12.50
2018-10-12T07:12:07.135Z,12.70
2018-10-12T07:14:42.721Z,12.60
2018-10-12T07:17:18.096Z,12.70
2018-10-12T07:19:53.438Z,12.80
2018-10-12T07:22:28.901Z,12.80
2018-10-12T07:25:04.474Z,13.10
2018-10-12T07:27:40.045Z,13.20
2018-10-12T07:30:15.722Z,13.20
2018-10-12T07:32:51.162Z,13.30
2018-10-12T07:35:26.826Z,13.30
2018-10-12T07:38:02.324Z,13.40
2018-10-12T07:40:37.764Z,13.60
2018-10-12T07:43:13.231Z,13.70
2018-10-12T07:45:48.834Z,13.80
2018-10-12T07:48:24.337Z,14.00
2018-10-12T07:50:59.771Z,14.30
2018-10-12T07:53:35.064Z,14.40
2018-10-12T07:56:10.508Z,14.50
2018-10-12T07:58:46.028Z,14.70
2018-10-12T08:01:21.445Z,14.60
2018-10-12T08:03:56.929Z,14.70
2018-10-12T08:06:32.627Z,14.90
2018-10-12T08:09:08.793Z,15.10
2018-10-12T08:11:44.184Z,15.20
2018-10-12T08:14:19.440Z,15.20
2018-10-12T08:16:54.685Z,15.20
2018-10-12T08:19:30.411Z,15.40
2018-10-12T08:22:05.966Z,15.40
2018-10-12T08:24:41.476Z,15.50
2018-10-12T08:27:16.621Z,15.50
2018-10-12T08:29:52.160Z,15.70
2018-10-12T08:32:27.741Z,15.80
2018-10-12T08:35:03.078Z,15.90
2018-10-12T08:37:38.151Z,16.00
2018-10-12T08:40:13.541Z,16.10
2018-10-12T08:42:49.091Z,16.20
2018-10-12T08:45:24.704Z,16.20
2018-10-12T08:48:00.031Z,16.40
2018-10-12T08:50:35.541Z,16.40
2018-10-12T08:53:11.065Z,16.30
2018-10-12T08:55:46.792Z,16.40
2018-10-12T08:58:22.382Z,16.60
2018-10-12T09:00:57.595Z,16.80
2018-10-12T09:03:32.967Z,16.90
2018-10-12T09:06:08.513Z,17.10
2018-10-12T09:08:44.080Z,17.10
2018-10-12T09:11:19.501Z,17.40
2018-10-12T09:13:54.952Z,17.70
2018-10-12T09:16:30.142Z,17.70
2018-10-12T09:19:06.044Z,17.80
2018-10-12T09:21:41.381Z,17.80
2018-10-12T09:24:16.906Z,17.70
2018-10-12T09:26:52.439Z,17.60
2018-10-12T09:29:28.005Z,17.70
2018-10-12T09:32:03.426Z,17.80
2018-10-12T09:34:38.971Z,17.90
2018-10-12T09:37:14.540Z,18.00
2018-10-12T09:39:49.898Z,18.10
2018-10-12T09:42:25.488Z,18.00
2018-10-12T09:45:01.161Z,18.10
2018-10-12T09:47:36.710Z,18.20
2018-10-12T09:50:12.204Z,18.20
2018-10-12T09:52:47.582Z,18.30
2018-10-12T09:55:22.944Z,18.30
2018-10-12T09:57:58.524Z,18.60
2018-10-12T10:00:39.083Z,18.50
2018-10-12T10:03:19.732Z,18.50
2018-10-12T10:05:55.090Z,18.50
2018-10-12T10:08:30.620Z,18.50
2018-10-12T10:11:05.958Z,18.70
2018-10-12T10:13:41.407Z,18.80
2018-10-12T10:16:16.685Z,18.90
2018-10-12T10:18:52.071Z,19.00
2018-10-12T10:21:27.436Z,19.00
2018-10-12T10:24:02.964Z,19.10
2018-10-12T10:26:38.492Z,19.20
2018-10-12T10:29:13.969Z,19.30
2018-10-12T10:31:49.465Z,19.40
2018-10-12T10:34:24.943Z,19.40
2018-10-12T10:37:00.242Z,19.40
2018-10-12T10:39:35.734Z,19.50
2018-10-12T10:42:11.164Z,19.60
2018-10-12T10:44:46.521Z,19.80
2018-10-12T10:47:21.775Z,19.80
2018-10-12T10:49:57.218Z,19.90
2018-10-12T10:52:32.598Z,19.90
2018-10-12T10:55:08.003Z,20.00
2018-10-12T10:57:43.323Z,20.10
2018-10-12T11:00:18.634Z,20.10
2018-10-12T11:02:53.897Z,20.10
2018-10-12T11:05:29.572Z,20.10
2018-10-12T11:08:05.031Z,20.20
2018-10-12T11:10:40.545Z,20.40
2018-10-12T11:13:16.050Z,20.50
2018-10-12T11:15:51.545Z,20.70
2018-10-12T11:18:26.862Z,20.80
2018-10-12T11:21:02.324Z,20.70
2018-10-12T11:23:37.684Z,20.70
2018-10-12T11:26:12.880Z,20.90
2018-10-12T11:28:48.326Z,21.00
2018-10-12T11:31:23.715Z,20.90
2018-10-12T11:33:59.340Z,21.00
2018-10-12T11:36:34.681Z,21.10
2018-10-12T11:39:13.503Z,21.10
2018-10-12T11:41:49.036Z,21.20
2018-10-12T11:44:24.713Z,21.40
2018-10-12T11:47:00.048Z,21.40
2018-10-12T11:49:35.532Z,21.40
2018-10-12T11:52:12.172Z,21.50
2018-10-12T11:54:48.180Z,21.50
2018-10-12T11:57:23.466Z,21.60
2018-10-12T11:59:59.133Z,21.70
2018-10-12T12:02:34.945Z,21.80
2018-10-12T12:05:10.581Z,21.80
2018-10-12T12:07:46.457Z,21.70
2018-10-12T12:10:22.005Z,21.60
2018-10-12T12:12:57.303Z,21.60
2018-10-12T12:15:32.814Z,21.70
2018-10-12T12:18:08.311Z,21.90
2018-10-12T12:20:43.660Z,22.10
2018-10-12T12:23:19.045Z,22.20
2018-10-12T12:25:54.513Z,22.30
2018-10-12T12:28:29.905Z,22.40
2018-10-12T12:31:05.286Z,22.50
2018-10-12T12:33:40.551Z,22.40
2018-10-12T12:36:16.041Z,22.40
2018-10-12T12:38:51.482Z,22.60
2018-10-12T12:41:27.143Z,22.60
2018-10-12T12:44:02.704Z,22.60
2018-10-12T12:46:38.044Z,22.90
2018-10-12T12:49:13.878Z,23.50
2018-10-12T12:51:49.124Z,23.80
2018-10-12T12:54:24.934Z,24.00
2018-10-12T12:57:00.523Z,24.00
2018-10-12T12:59:35.981Z,24.80
2018-10-12T13:02:11.325Z,25.40
2018-10-12T13:04:46.835Z,25.90
2018-10-12T13:07:22.567Z,26.20
2018-10-12T13:09:58.386Z,27.10
2018-10-12T13:12:33.884Z,27.10
2018-10-12T13:15:09.375Z,26.10
2018-10-12T13:17:45.123Z,25.90
2018-10-12T13:20:20.904Z,26.00
2018-10-12T13:22:56.398Z,26.50
2018-10-12T13:25:31.756Z,27.20
2018-10-12T13:28:07.392Z,27.20
2018-10-12T13:30:42.844Z,26.80
2018-10-12T13:33:18.093Z,26.50
2018-10-12T13:35:53.521Z,27.20
2018-10-12T13:38:28.841Z,27.20
2018-10-12T13:41:04.124Z,26.60
2018-10-12T13:43:39.524Z,26.20
2018-10-12T13:46:14.944Z,25.90
2018-10-12T13:48:50.303Z,25.50
2018-10-12T13:51:25.680Z,24.80
2018-10-12T13:54:01.286Z,24.50
2018-10-12T13:56:36.875Z,24.40
2018-10-12T13:59:12.766Z,23.90
2018-10-12T14:01:48.273Z,23.80
2018-10-12T14:04:23.830Z,23.50
2018-10-12T14:06:59.748Z,23.40
2018-10-12T14:09:35.123Z,23.10
2018-10-12T14:12:10.546Z,23.00
2018-10-12T14:14:45.925Z,22.80
2018-10-12T14:17:21.615Z,22.90
2018-10-12T14:19:57.477Z,22.80
2018-10-12T14:22:33.081Z,22.60
2018-10-12T14:25:08.713Z,22.50
2018-10-12T14:27:45.256Z,22.40
2018-10-12T14:30:20.812Z,22.30
2018-10-12T14:33:00.258Z,22.10
2018-10-12T14:35:37.258Z,22.20
2018-10-12T14:38:12.635Z,22.00
2018-10-12T14:40:48.435Z,22.10
2018-10-12T14:43:24.121Z,21.90
2018-10-12T14:45:59.591Z,21.80
2018-10-12T14:48:35.481Z,21.90
2018-10-12T14:51:11.384Z,21.90
2018-10-12T14:53:47.145Z,21.90
2018-10-12T14:56:22.641Z,21.80
2018-10-12T14:58:59.378Z,21.70
2018-10-12T15:01:36.398Z,21.70
2018-10-12T15:04:12.511Z,21.80
2018-10-12T15:06:47.986Z,21.80
2018-10-12T15:09:24.269Z,21.70
2018-10-12T15:11:59.853Z,21.50
2018-10-12T15:14:47.526Z,21.60
2018-10-12T15:17:24.454Z,21.40
2018-10-12T15:20:00.124Z,21.40
2018-10-12T15:22:38.166Z,21.40
2018-10-12T15:25:14.565Z,21.40
2018-10-12T15:27:50.216Z,21.30
2018-10-12T15:30:25.804Z,21.30
2018-10-12T15:33:02.210Z,21.00
2018-10-12T15:35:37.973Z,20.80
2018-10-12T15:38:13.661Z,20.70
2018-10-12T15:40:49.311Z,20.60
2018-10-12T15:43:25.114Z,20.50
2018-10-12T15:46:00.604Z,20.40
2018-10-12T15:48:35.818Z,20.30
2018-10-12T15:51:11.715Z,20.10
2018-10-12T15:53:47.581Z,19.90
2018-10-12T15:56:23.161Z,19.80
2018-10-12T15:58:58.381Z,19.60
2018-10-12T16:01:33.876Z,19.50
2018-10-12T16:04:09.784Z,19.30
2018-10-12T16:06:45.314Z,19.20
2018-10-12T16:09:20.764Z,19.10
2018-10-12T16:11:56.287Z,18.90
2018-10-12T16:14:31.879Z,18.70
2018-10-12T16:17:07.480Z,18.60
2018-10-12T16:19:42.756Z,18.40
2018-10-12T16:22:24.240Z,18.30
2018-10-12T16:25:10.716Z,18.10
2018-10-12T16:27:46.036Z,18.00
2018-10-12T16:30:21.697Z,17.90
2018-10-12T16:32:57.173Z,17.80
2018-10-12T16:35:32.595Z,17.60
2018-10-12T16:38:08.184Z,17.60
2018-10-12T16:40:44.040Z,17.50
2018-10-12T16:43:19.503Z,17.30
2018-10-12T16:45:54.744Z,17.20
2018-10-12T16:48:30.141Z,17.10
2018-10-12T16:51:05.594Z,17.00
2018-10-12T16:53:41.173Z,16.90
2018-10-12T16:56:16.581Z,16.90
2018-10-12T16:58:51.856Z,16.80
2018-10-12T17:01:27.233Z,16.70
2018-10-12T17:04:02.330Z,16.70
2018-10-12T17:06:37.855Z,16.60
2018-10-12T17:09:13.408Z,16.60
2018-10-12T17:11:49.026Z,16.50
2018-10-12T17:14:24.523Z,16.50
2018-10-12T17:17:00.122Z,16.40
2018-10-12T17:19:35.805Z,16.30
2018-10-12T17:22:11.162Z,16.30
2018-10-12T17:24:46.602Z,16.20
2018-10-12T17:27:22.212Z,16.10
2018-10-12T17:29:57.561Z,16.10
2018-10-12T17:32:33.003Z,16.00
2018-10-12T17:35:08.296Z,16.00
2018-10-12T17:37:43.945Z,15.90
2018-10-12T17:40:19.592Z,15.90
2018-10-12T17:42:55.057Z,15.90
2018-10-12T17:45:30.686Z,15.80
2018-10-12T17:48:06.145Z,15.70
2018-10-12T17:50:41.765Z,15.70
2018-10-12T17:53:17.111Z,15.60
2018-10-12T17:55:52.682Z,15.60
2018-10-12T17:58:28.038Z,15.50
2018-10-12T18:01:03.626Z,15.50
2018-10-12T18:03:39.215Z,15.50
2018-10-12T18:06:14.614Z,15.40
2018-10-12T18:08:50.052Z,15.40
2018-10-12T18:11:25.655Z,15.30
2018-10-12T18:14:04.026Z,15.30
2018-10-12T18:16:39.524Z,15.30
2018-10-12T18:19:14.951Z,15.30
2018-10-12T18:21:50.345Z,15.30
2018-10-12T18:24:25.745Z,15.20
2018-10-12T18:27:01.254Z,15.20
2018-10-12T18:29:36.722Z,15.20
2018-10-12T18:32:12.032Z,15.20
2018-10-12T18:34:50.237Z,15.10
2018-10-12T18:37:25.512Z,15.00
2018-10-12T18:40:01.142Z,15.00
2018-10-12T18:42:36.597Z,15.00
2018-10-12T18:45:12.236Z,14.90
2018-10-12T18:47:48.037Z,14.90
2018-10-12T18:50:23.458Z,14.90
2018-10-12T18:52:58.871Z,14.90
2018-10-12T18:55:34.154Z,15.00
2018-10-12T18:58:09.631Z,14.90
2018-10-12T19:00:45.065Z,14.90
2018-10-12T19:03:20.486Z,15.00
2018-10-12T19:05:55.881Z,14.90
2018-10-12T19:08:31.267Z,14.90
2018-10-12T19:11:06.691Z,14.90
2018-10-12T19:13:41.948Z,14.90
2018-10-12T19:16:17.404Z,14.90
2018-10-12T19:18:53.013Z,14.90
2018-10-12T19:21:28.914Z,14.80
2018-10-12T19:24:04.392Z,14.90
2018-10-12T19:26:39.962Z,14.90
2018-10-12T19:29:15.284Z,14.90
2018-10-12T19:32:54.167Z,14.80
2018-10-12T19:35:29.804Z,14.90
2018-10-12T19:38:05.435Z,14.90
2018-10-12T19:40:41.014Z,14.80
2018-10-12T19:43:16.502Z,14.80
2018-10-12T19:45:51.794Z,14.80
2018-10-12T19:48:27.212Z,14.90
2018-10-12T19:51:02.896Z,15.10
2018-10-12T19:53:38.345Z,15.10
2018-10-12T19:56:13.462Z,15.00
2018-10-12T19:58:48.805Z,15.00
2018-10-12T20:01:23.994Z,14.90
2018-10-12T20:03:59.242Z,14.90
2018-10-12T20:06:34.646Z,14.80
2018-10-12T20:09:11.544Z,14.80
2018-10-12T20:11:46.923Z,14.70
2018-10-12T20:14:22.298Z,15.10
2018-10-12T20:16:57.511Z,15.10
2018-10-12T20:19:32.839Z,15.10
2018-10-12T20:22:10.106Z,15.10
2018-10-12T20:24:45.445Z,15.20
2018-10-12T20:27:20.812Z,15.30
2018-10-12T20:29:56.037Z,15.30
2018-10-12T20:32:31.449Z,15.30
2018-10-12T20:35:06.951Z,15.20
2018-10-12T20:37:42.252Z,15.00
2018-10-12T20:40:17.414Z,15.00
2018-10-12T20:42:52.836Z,15.10
2018-10-12T20:45:28.096Z,15.00
2018-10-12T20:48:03.685Z,15.10
2018-10-12T20:50:39.239Z,15.00
2018-10-12T20:53:14.844Z,15.00
2018-10-12T20:55:50.420Z,15.30
2018-10-12T20:58:26.081Z,15.30
2018-10-12T21:01:01.622Z,15.40
2018-10-12T21:03:37.071Z,15.30
2018-10-12T21:06:12.626Z,15.20
2018-10-12T21:08:47.905Z,15.10
2018-10-12T21:11:23.384Z,15.10
2018-10-12T21:13:58.692Z,15.10
2018-10-12T21:16:34.843Z,15.40
2018-10-12T21:19:10.714Z,15.70
2018-10-12T21:21:46.004Z,15.80
2018-10-12T21:24:21.454Z,15.90
2018-10-12T21:26:56.635Z,15.80
2018-10-12T21:29:32.436Z,15.80
2018-10-12T21:32:08.035Z,15.80
2018-10-12T21:34:43.734Z,15.80
2018-10-12T21:37:19.625Z,15.80
2018-10-12T21:39:54.914Z,16.00
2018-10-12T21:42:30.605Z,15.90
2018-10-12T21:45:06.143Z,15.80
2018-10-12T21:47:41.431Z,15.80
2018-10-12T21:50:16.866Z,15.80
2018-10-12T21:52:52.422Z,15.70
2018-10-12T21:55:28.130Z,15.70
2018-10-12T21:58:03.731Z,15.60
2018-10-12T22:00:39.074Z,15.60
2018-10-12T22:03:14.934Z,15.60
2018-10-12T22:05:50.334Z,15.80
2018-10-12T22:08:30.782Z,15.80
2018-10-12T22:11:06.889Z,15.80
2018-10-12T22:13:42.302Z,15.80
2018-10-12T22:16:17.657Z,15.90
2018-10-12T22:18:53.181Z,16.10
2018-10-12T22:21:28.835Z,16.10
2018-10-12T22:24:04.361Z,16.10
2018-10-12T22:26:39.664Z,16.20
2018-10-12T22:29:14.897Z,16.20
2018-10-12T22:31:50.464Z,16.30
2018-10-12T22:34:26.059Z,16.30
2018-10-12T22:37:01.455Z,16.40
2018-10-12T22:39:37.076Z,16.50
2018-10-12T22:42:13.955Z,16.30
2018-10-12T22:44:49.295Z,16.20
2018-10-12T22:47:24.641Z,16.30
2018-10-12T22:49:59.842Z,16.20
2018-10-12T22:52:35.132Z,16.20
2018-10-12T22:55:10.152Z,16.10
2018-10-12T22:57:45.621Z,16.10
2018-10-12T23:00:21.177Z,16.10
2018-10-12T23:02:56.572Z,16.20
2018-10-12T23:05:32.063Z,16.20
2018-10-12T23:08:07.939Z,16.30
2018-10-12T23:10:44.354Z,16.20
2018-10-12T23:13:19.722Z,16.20
2018-10-12T23:15:55.105Z,16.20
2018-10-12T23:18:30.426Z,16.30
2018-10-12T23:21:05.891Z,16.30
2018-10-12T23:23:41.581Z,16.40
2018-10-12T23:26:17.220Z,16.50
2018-10-12T23:28:52.764Z,16.50
2018-10-12T23:31:28.391Z,16.30
2018-10-12T23:34:06.989Z,16.40
2018-10-12T23:36:42.484Z,16.30
2018-10-12T23:39:17.711Z,16.20
2018-10-12T23:41:53.122Z,16.10
2018-10-12T23:44:28.533Z,16.10
2018-10-12T23:47:03.932Z,16.20
2018-10-12T23:49:38.994Z,16.10
2018-10-12T23:52:14.095Z,16.00
2018-10-12T23:54:49.452Z,16.00
2018-10-12T23:57:25.115Z,16.00
